Flight Track Log - Related Links

Times and Time Zones

All times are in EDT time to prevent confusion due to time zone crossing. See the UAL4604 flight status page for this flight to view local times or setup timezone preferences in your user account.


Time Position Orientation Groundspeed Altitude Reporting Facility
EDT Latitude Longitude Course Direction KTS MPH feet Rate Location/Type
Sun 01:59:38 PM 29.9617 -95.3436 35° Northeast 151 174 600  Level Houston Center
Sun 02:00:27 PM 29.9453 -95.3022 115° Southeast 194 223 2,100 1,419 Climbing Houston Center
Sun 02:01:11 PM 29.9667 -95.2725 50° Northeast 230 265 2,800 1,472 Climbing Houston Center
Sun 02:02:13 PM 30.0314 -95.2375 25° Northeast 252 290 4,700 2,565 Climbing Houston Center
Sun 02:03:00 PM 30.3874 -95.0101 35° Northeast  Level FlightAware Approximate
Sun 02:03:15 PM 30.1094 -95.1864 30° Northeast 268 308 8,100  Level Houston Center
Sun 02:04:00 PM 30.4875 -94.9333 35° Northeast  Level FlightAware Approximate
Sun 02:04:17 PM 30.1744 -95.1433 30° Northeast 270 311 10,300  Level Houston Center
Sun 02:05:19 PM 30.2514 -95.0933 29° Northeast 316 364 11,100 1,355 Climbing Houston Center
Sun 02:06:21 PM 30.3336 -95.0367 31° Northeast 347 399 13,100 1,584 Climbing Houston Center
Sun 02:07:24 PM 30.4194 -94.9817 29° Northeast 354 407 14,400 1,200 Climbing Houston Center
Sun 02:08:26 PM 30.5150 -94.9172 30° Northeast 378 435 15,600 1,452 Climbing Houston Center
Sun 02:09:28 PM 30.6256 -94.8375 32° Northeast 388 447 17,400 1,548 Climbing Houston Center
Sun 02:10:30 PM 30.7144 -94.7669 34° Northeast 390 449 18,800 1,258 Climbing Houston Center
Sun 02:11:32 PM 30.8061 -94.6972 33° Northeast 393 452 20,000 1,113 Climbing Houston Center
Sun 02:12:34 PM 30.8992 -94.6250 34° Northeast 402 463 21,100 1,084 Climbing Houston Center
Sun 02:12:55 PM 30.9375 -94.5944 34° Northeast 395 455 21,500 1,111 Climbing Fort Worth Center
Sun 02:13:55 PM 31.0319 -94.5214 34° Northeast 395 455 22,600 1,100 Climbing Fort Worth Center
Sun 02:14:55 PM 31.1306 -94.4456 33° Northeast 405 466 23,700 1,050 Climbing Fort Worth Center
Sun 02:15:55 PM 31.2186 -94.3769 34° Northeast 406 467 24,700 1,050 Climbing Fort Worth Center
Sun 02:16:55 PM 31.3147 -94.3011 34° Northeast 420 483 25,800 1,050 Climbing Fort Worth Center
Sun 02:17:55 PM 31.4131 -94.2247 34° Northeast 420 483 26,800 1,050 Climbing Fort Worth Center
Sun 02:18:55 PM 31.5136 -94.1481 33° Northeast 420 483 27,900 1,050 Climbing Fort Worth Center
Sun 02:19:55 PM 31.6136 -94.0689 34° Northeast 426 490 28,900 1,100 Climbing Fort Worth Center
Sun 02:20:55 PM 31.7119 -93.9922 34° Northeast 426 490 30,100 1,200 Climbing Fort Worth Center
Sun 02:21:55 PM 31.7922 -93.8817 49° Northeast 426 490 31,300 1,150 Climbing Fort Worth Center
Sun 02:22:55 PM 31.8664 -93.7686 52° Northeast 426 490 32,400 1,050 Climbing Fort Worth Center
Sun 02:23:55 PM 31.9422 -93.6556 52° Northeast 432 497 33,400 1,050 Climbing Fort Worth Center
Sun 02:24:55 PM 32.0183 -93.5422 52° Northeast 438 504 34,500 800 Climbing Fort Worth Center
Sun 02:25:55 PM 32.0919 -93.4311 52° Northeast 438 504 35,000 252 Climbing Fort Worth Center
Sun 02:26:54 PM 32.1772 -93.2925 54° Northeast 438 504 35,000  Level Fort Worth Center
Sun 02:27:55 PM 32.2567 -93.1686 53° Northeast 457 526 35,000  Level Fort Worth Center
Sun 02:28:55 PM 32.3344 -93.0592 50° Northeast 466 536 35,000  Level Fort Worth Center
Sun 02:29:55 PM 32.4272 -92.9094 54° Northeast 486 559 35,000  Level Fort Worth Center
Sun 02:30:55 PM 32.5142 -92.7772 52° Northeast 503 579 35,000  Level Fort Worth Center
Sun 02:31:54 PM 32.5969 -92.6472 53° Northeast 508 585 35,000  Level Fort Worth Center
Sun 02:32:55 PM 32.6817 -92.5167 52° Northeast 498 573 35,000  Level Fort Worth Center
Sun 02:33:55 PM 32.7664 -92.3861 52° Northeast 498 573 35,000  Level Fort Worth Center
Sun 02:34:55 PM 32.8508 -92.2578 52° Northeast 498 573 35,000  Level Fort Worth Center
Sun 02:36:09 PM 32.9500 -92.0978 54° Northeast 513 590 35,000  Level Memphis Center
Sun 02:37:09 PM 33.0183 -91.9800 55° Northeast 489 563 35,000  Level Memphis Center
Sun 02:38:09 PM 33.1056 -91.8503 51° Northeast 484 557 35,000  Level Memphis Center
Sun 02:39:09 PM 33.1844 -91.7200 54° Northeast 489 563 35,000  Level Memphis Center
Sun 02:40:09 PM 33.2714 -91.5872 52° Northeast 495 570 35,000  Level Memphis Center
Sun 02:41:09 PM 33.3519 -91.4514 55° Northeast 495 570 35,000  Level Memphis Center
Sun 02:42:09 PM 33.4364 -91.3206 52° Northeast 500 575 35,000  Level Memphis Center
Sun 02:43:09 PM 33.5167 -91.1869 54° Northeast 500 575 35,000  Level Memphis Center
Sun 02:44:09 PM 33.6011 -91.0506 53° Northeast 500 575 35,000  Level Memphis Center
Sun 02:45:09 PM 33.6853 -90.9189 52° Northeast 500 575 35,000  Level Memphis Center
Sun 02:46:09 PM 33.7672 -90.7844 54° Northeast 500 575 35,000  Level Memphis Center
Sun 02:47:09 PM 33.8572 -90.6350 54° Northeast 500 575 35,000  Level Memphis Center
Sun 02:48:09 PM 33.9411 -90.4975 54° Northeast 500 575 35,000  Level Memphis Center
Sun 02:49:09 PM 34.0225 -90.3622 54° Northeast 498 573 35,000  Level Memphis Center
Sun 02:50:09 PM 34.1058 -90.2242 54° Northeast 498 573 35,000  Level Memphis Center
Sun 02:51:09 PM 34.1892 -90.0861 54° Northeast 505 581 35,000  Level Memphis Center
Sun 02:52:09 PM 34.2700 -89.9475 55° Northeast 505 581 35,000  Level Memphis Center
Sun 02:53:09 PM 34.3508 -89.8111 54° Northeast 496 571 35,000  Level Memphis Center
Sun 02:54:09 PM 34.4294 -89.6772 55° Northeast 496 571 35,000  Level Memphis Center
Sun 02:55:09 PM 34.5122 -89.5381 54° Northeast 501 577 35,000  Level Memphis Center
Sun 02:56:09 PM 34.5947 -89.3958 55° Northeast 501 577 35,000  Level Memphis Center
Sun 02:57:09 PM 34.6747 -89.2536 56° Northeast 506 582 35,000  Level Memphis Center
Sun 02:58:09 PM 34.7003 -89.0889 79° East 493 567 35,000  Level Memphis Center
Sun 02:59:09 PM 34.7153 -88.9194 84° East 493 567 35,000  Level Memphis Center
Sun 03:00:09 PM 34.7278 -88.7525 85° East 499 574 35,000 350 Level Memphis Center
Sun 03:01:09 PM 34.7422 -88.5803 84° East 504 580 35,700 850 Climbing Memphis Center
Sun 03:02:09 PM 34.7525 -88.4436 85° East 477 549 36,700 650 Climbing Memphis Center
Sun 03:03:09 PM 34.7667 -88.2817 84° East 471 542 37,000 150 Climbing Memphis Center
Sun 03:04:09 PM 34.7803 -88.1119 84° East 481 554 37,000  Level Memphis Center
Sun 03:05:09 PM 34.7919 -87.9419 85° East 502 578 37,000  Level Memphis Center
Sun 03:07:07 PM 34.8172 -87.6086 85° East 522 601 37,000  Level Atlanta Center
Sun 03:08:07 PM 34.8289 -87.4219 86° East 516 594 37,000  Level Atlanta Center
Sun 03:09:07 PM 34.8417 -87.2503 85° East 516 594 37,000  Level Atlanta Center
Sun 03:10:07 PM 34.8503 -87.0786 86° East 516 594 37,000  Level Atlanta Center
Sun 03:11:07 PM 34.8628 -86.9094 85° East 516 594 37,000  Level Atlanta Center
Sun 03:12:07 PM 34.8728 -86.7375 86° East 511 588 37,000  Level Atlanta Center
Sun 03:13:07 PM 34.8828 -86.5683 86° East 511 588 37,000  Level Atlanta Center
Sun 03:14:07 PM 34.8944 -86.3989 85° East 501 577 37,000  Level Atlanta Center
Sun 03:15:07 PM 34.9039 -86.2294 86° East 501 577 37,000  Level Atlanta Center
Sun 03:16:07 PM 34.9125 -86.0931 86° East 501 577 37,000  Level Atlanta Center
Sun 03:17:07 PM 34.9219 -85.8881 87° East 496 571 37,000  Level Atlanta Center
Sun 03:18:07 PM 34.9308 -85.7158 86° East 501 577 37,000  Level Atlanta Center
Sun 03:19:07 PM 34.9392 -85.5489 86° East 501 577 37,000  Level Atlanta Center
Sun 03:20:07 PM 34.9494 -85.3819 86° East 496 571 37,000  Level Atlanta Center
Sun 03:21:07 PM 34.9572 -85.2172 87° East 496 571 37,000  Level Atlanta Center
Sun 03:22:07 PM 35.0044 -85.0708 68° East 472 543 37,000  Level Atlanta Center
Sun 03:23:07 PM 35.0744 -84.9294 59° Northeast 471 542 37,000  Level Atlanta Center
Sun 03:24:07 PM 35.1486 -84.7881 57° Northeast 477 549 37,000  Level Atlanta Center
Sun 03:25:07 PM 35.2181 -84.6439 59° Northeast 482 555 37,000  Level Atlanta Center
Sun 03:26:07 PM 35.2939 -84.4994 57° Northeast 493 567 37,000  Level Atlanta Center
Sun 03:27:07 PM 35.3633 -84.3544 60° Northeast 493 567 37,000  Level Atlanta Center
Sun 03:28:07 PM 35.4344 -84.2119 58° Northeast 493 567 37,000  Level Atlanta Center
Sun 03:29:07 PM 35.5075 -84.0642 59° Northeast 493 567 37,000  Level Atlanta Center
Sun 03:30:07 PM 35.5806 -83.9186 58° Northeast 493 567 37,000  Level Atlanta Center
Sun 03:31:07 PM 35.6511 -83.7756 59° Northeast 493 567 37,000  Level Atlanta Center
Sun 03:32:07 PM 35.7217 -83.6269 60° Northeast 493 567 37,000  Level Atlanta Center
Sun 03:33:07 PM 35.7964 -83.4806 58° Northeast 493 567 37,000  Level Atlanta Center
Sun 03:34:07 PM 35.8664 -83.3342 59° Northeast 493 567 37,000 -250 Level Atlanta Center
Sun 03:35:07 PM 35.9281 -83.2003 60° Northeast 493 567 36,500 -500 Descending Atlanta Center
Sun 03:36:07 PM 36.0083 -83.0375 59° Northeast 498 573 36,000 -350 Descending Atlanta Center
Sun 03:37:07 PM 36.0758 -82.8931 60° Northeast 489 563 35,800 -500 Descending Atlanta Center
Sun 03:38:07 PM 36.1472 -82.7403 60° Northeast 495 570 35,000 -450 Descending Atlanta Center
Sun 03:39:07 PM 36.2208 -82.5897 59° Northeast 500 575 34,900 -800 Descending Atlanta Center
Sun 03:40:07 PM 36.2939 -82.4389 59° Northeast 505 581 33,400 -1,450 Descending Atlanta Center
Sun 03:41:07 PM 36.3650 -82.2881 60° Northeast 505 581 32,000 -1,150 Descending Atlanta Center
Sun 03:42:07 PM 36.4356 -82.1369 60° Northeast 505 581 31,100 -500 Descending Atlanta Center
Sun 03:43:07 PM 36.5061 -81.9853 60° Northeast 505 581 31,000 -50 Descending Atlanta Center
Sun 03:44:07 PM 36.5744 -81.8364 60° Northeast 505 581 31,000  Level Atlanta Center
Sun 03:45:07 PM 36.6467 -81.6842 59° Northeast 500 575 31,000  Level Atlanta Center
Sun 03:46:07 PM 36.7167 -81.5319 60° Northeast 500 575 31,000  Level Atlanta Center
Sun 03:47:07 PM 36.7842 -81.3744 62° Northeast 510 587 31,000  Level Atlanta Center
Sun 03:48:07 PM 36.8558 -81.2214 60° Northeast 510 587 31,000 -50 Level Atlanta Center
Sun 03:49:07 PM 36.9253 -81.0711 60° Northeast 505 581 30,900 -613 Descending Atlanta Center
Sun 03:51:13 PM 37.0667 -80.7614 60° Northeast 554 638 29,100 -610 Descending Washington Center
Sun 03:52:14 PM 37.1103 -80.5742 74° East 507 583 29,000 -397 Descending Washington Center
Sun 03:53:14 PM 37.1378 -80.4067 78° East 497 572 28,300 -1,041 Descending Washington Center
Sun 03:54:15 PM 37.1656 -80.2311 79° East 502 578 26,900 -1,424 Descending Washington Center
Sun 03:55:12 PM 37.1925 -80.0739 78° East 502 578 25,500 -1,487 Descending Washington Center
Sun 03:56:12 PM 37.2175 -79.9083 79° East 497 572 24,000 -1,190 Descending Washington Center
Sun 03:57:13 PM 37.2419 -79.7428 79° East 491 565 23,100 -492 Descending Washington Center
Sun 03:58:14 PM 37.2733 -79.5592 78° East 480 552 23,000 -50 Descending Washington Center
Sun 03:59:12 PM 37.2975 -79.3931 80° East 480 552 23,000 -454 Level Washington Center
Sun 04:00:13 PM 37.3233 -79.2300 79° East 480 552 22,100 -1,180 Descending Washington Center
Sun 04:01:14 PM 37.3464 -79.0847 79° East 480 552 20,600 -1,513 Descending Washington Center
Sun 04:02:12 PM 37.3717 -78.9317 78° East 464 534 19,100 -1,373 Descending Washington Center
Sun 04:03:12 PM 37.4461 -78.8042 54° Northeast 442 509 17,900 -1,500 Descending Washington Center
Sun 04:04:12 PM 37.5289 -78.6742 51° Northeast 430 495 16,100 -1,438 Descending Washington Center
Sun 04:05:13 PM 37.5964 -78.5614 53° Northeast 419 482 15,000 -1,230 Descending Washington Center
Sun 04:06:14 PM 37.6592 -78.4642 51° Northeast 385 443 13,600 -1,412 Descending Washington Center
Sun 04:07:12 PM 37.7156 -78.3744 52° Northeast 351 404 12,200 -1,462 Descending Washington Center
Sun 04:08:13 PM 37.7572 -78.2842 60° Northeast 327 376 10,700 -1,426 Descending Washington Center
Sun 04:09:14 PM 37.7175 -78.1986 120° Southeast 268 308 9,300 -843 Descending Washington Center
Sun 04:10:14 PM 37.6733 -78.1106 122° Southeast 267 307 9,000 -153 Descending Washington Center
Sun 04:11:12 PM 37.6253 -78.0147 122° Southeast 277 319 9,000 -706 Level Washington Center
Sun 04:12:13 PM 37.6294 -77.9150 87° East 277 319 7,600 -1,438 Descending Washington Center
Sun 04:13:13 PM 37.6439 -77.8133 80° East 277 319 6,100 -1,339 Descending Washington Center
Sun 04:14:14 PM 37.6558 -77.7244 80° East 271 312 4,900 -1,200 Descending Washington Center
Sun 04:15:13 PM 37.6614 -77.6406 85° East 252 290 3,700 -1,210 Descending Washington Center
Sun 04:16:13 PM 37.6525 -77.5617 98° East 237 273 2,500 -800 Descending Washington Center
Sun 04:17:13 PM 37.6367 -77.4931 106° East 213 245 2,100 -202 Descending Washington Center
Sun 04:18:12 PM 37.6086 -77.4347 121° Southeast 202 232 2,100  Level Washington Center

Login

Don't have an account? Register now (free) for customized features, flight alerts, and more!